sensor_id;sensor_type;location;lat;lon;timestamp;temperature;humidity
64396;DHT22;50717;53.360;6.290;2023-02-23T00:01:32;7.90;99.90
64396;DHT22;50717;53.360;6.290;2023-02-23T00:03:58;6.80;99.90
64396;DHT22;50717;53.360;6.290;2023-02-23T00:06:26;7.90;99.90
64396;DHT22;50717;53.360;6.290;2023-02-23T00:08:52;7.20;99.90
64396;DHT22;50717;53.360;6.290;2023-02-23T00:11:18;8.10;99.90
64396;DHT22;50717;53.360;6.290;2023-02-23T00:13:46;6.90;99.90
64396;DHT22;50717;53.360;6.290;2023-02-23T00:16:17;7.70;99.90
64396;DHT22;50717;53.360;6.290;2023-02-23T00:18:48;7.90;99.90
64396;DHT22;50717;53.360;6.290;2023-02-23T00:21:18;8.20;99.90
64396;DHT22;50717;53.360;6.290;2023-02-23T00:23:54;7.80;99.90
64396;DHT22;50717;53.360;6.290;2023-02-23T00:26:23;7.10;99.90
64396;DHT22;50717;53.360;6.290;2023-02-23T00:28:49;7.20;99.90
64396;DHT22;50717;53.360;6.290;2023-02-23T00:31:16;6.90;99.90
64396;DHT22;50717;53.360;6.290;2023-02-23T00:33:42;7.40;99.90
64396;DHT22;50717;53.360;6.290;2023-02-23T00:36:11;6.90;99.90
64396;DHT22;50717;53.360;6.290;2023-02-23T00:38:39;7.20;99.90
64396;DHT22;50717;53.360;6.290;2023-02-23T00:41:11;8.10;99.90
64396;DHT22;50717;53.360;6.290;2023-02-23T00:43:39;6.80;99.90
64396;DHT22;50717;53.360;6.290;2023-02-23T00:46:19;6.80;99.90
64396;DHT22;50717;53.360;6.290;2023-02-23T00:48:47;7.10;99.90
64396;DHT22;50717;53.360;6.290;2023-02-23T00:51:13;6.90;99.90
64396;DHT22;50717;53.360;6.290;2023-02-23T00:53:40;8.10;99.90
64396;DHT22;50717;53.360;6.290;2023-02-23T00:56:08;8.10;99.90
64396;DHT22;50717;53.360;6.290;2023-02-23T00:58:34;8.20;99.90
64396;DHT22;50717;53.360;6.290;2023-02-23T01:01:00;7.50;99.90
64396;DHT22;50717;53.360;6.290;2023-02-23T01:03:27;7.90;99.90
64396;DHT22;50717;53.360;6.290;2023-02-23T01:05:57;7.30;99.90
64396;DHT22;50717;53.360;6.290;2023-02-23T01:08:23;8.30;99.90
64396;DHT22;50717;53.360;6.290;2023-02-23T01:10:49;7.50;99.90
64396;DHT22;50717;53.360;6.290;2023-02-23T01:13:21;7.40;99.90
64396;DHT22;50717;53.360;6.290;2023-02-23T01:15:48;7.60;99.90
64396;DHT22;50717;53.360;6.290;2023-02-23T01:18:15;8.20;99.90
64396;DHT22;50717;53.360;6.290;2023-02-23T01:20:42;7.80;99.90
64396;DHT22;50717;53.360;6.290;2023-02-23T01:23:11;7.80;99.90
64396;DHT22;50717;53.360;6.290;2023-02-23T01:25:37;6.80;99.90
64396;DHT22;50717;53.360;6.290;2023-02-23T01:28:03;7.60;99.90
64396;DHT22;50717;53.360;6.290;2023-02-23T01:30:29;8.40;99.90
64396;DHT22;50717;53.360;6.290;2023-02-23T01:32:55;7.10;99.90
64396;DHT22;50717;53.360;6.290;2023-02-23T01:35:21;7.30;99.90
64396;DHT22;50717;53.360;6.290;2023-02-23T01:37:47;8.30;99.90
64396;DHT22;50717;53.360;6.290;2023-02-23T01:40:20;7.70;99.90
64396;DHT22;50717;53.360;6.290;2023-02-23T01:43:08;7.60;99.90
64396;DHT22;50717;53.360;6.290;2023-02-23T01:45:40;7.30;99.90
64396;DHT22;50717;53.360;6.290;2023-02-23T01:48:12;7.50;99.90
64396;DHT22;50717;53.360;6.290;2023-02-23T01:51:07;7.30;99.90
64396;DHT22;50717;53.360;6.290;2023-02-23T01:53:38;7.40;99.90
64396;DHT22;50717;53.360;6.290;2023-02-23T01:56:10;7.80;99.90
64396;DHT22;50717;53.360;6.290;2023-02-23T01:58:42;8.30;99.90
64396;DHT22;50717;53.360;6.290;2023-02-23T02:01:10;7.60;99.90
64396;DHT22;50717;53.360;6.290;2023-02-23T02:06:11;7.40;99.90
64396;DHT22;50717;53.360;6.290;2023-02-23T02:08:40;7.30;99.90
64396;DHT22;50717;53.360;6.290;2023-02-23T02:11:16;7.10;99.90
64396;DHT22;50717;53.360;6.290;2023-02-23T02:14:01;8.00;99.90
64396;DHT22;50717;53.360;6.290;2023-02-23T02:36:21;8.20;99.90
64396;DHT22;50717;53.360;6.290;2023-02-23T02:39:18;8.10;99.90
64396;DHT22;50717;53.360;6.290;2023-02-23T02:44:31;7.90;99.90
64396;DHT22;50717;53.360;6.290;2023-02-23T02:47:07;9.00;99.90
64396;DHT22;50717;53.360;6.290;2023-02-23T02:49:44;7.90;99.90
64396;DHT22;50717;53.360;6.290;2023-02-23T02:53:01;7.30;99.90
64396;DHT22;50717;53.360;6.290;2023-02-23T02:55:17;7.20;99.90
64396;DHT22;50717;53.360;6.290;2023-02-23T02:57:49;8.30;99.90
64396;DHT22;50717;53.360;6.290;2023-02-23T03:00:23;8.10;99.90
64396;DHT22;50717;53.360;6.290;2023-02-23T03:03:36;8.10;99.90
64396;DHT22;50717;53.360;6.290;2023-02-23T03:06:34;7.10;99.90
64396;DHT22;50717;53.360;6.290;2023-02-23T03:09:42;7.10;99.90
64396;DHT22;50717;53.360;6.290;2023-02-23T03:13:25;7.60;99.90
64396;DHT22;50717;53.360;6.290;2023-02-23T03:16:02;7.20;99.90
64396;DHT22;50717;53.360;6.290;2023-02-23T03:19:33;8.20;99.90
64396;DHT22;50717;53.360;6.290;2023-02-23T03:22:45;7.80;99.90
64396;DHT22;50717;53.360;6.290;2023-02-23T03:29:08;7.60;99.90
64396;DHT22;50717;53.360;6.290;2023-02-23T03:35:31;8.40;99.90
64396;DHT22;50717;53.360;6.290;2023-02-23T03:38:44;8.10;99.90
64396;DHT22;50717;53.360;6.290;2023-02-23T03:41:32;8.00;99.90
64396;DHT22;50717;53.360;6.290;2023-02-23T03:44:25;7.90;99.90
64396;DHT22;50717;53.360;6.290;2023-02-23T03:47:11;7.40;99.90
64396;DHT22;50717;53.360;6.290;2023-02-23T03:49:59;8.20;99.90
64396;DHT22;50717;53.360;6.290;2023-02-23T03:52:49;7.70;99.90
64396;DHT22;50717;53.360;6.290;2023-02-23T03:55:38;7.10;99.90
64396;DHT22;50717;53.360;6.290;2023-02-23T03:58:39;7.50;99.90
64396;DHT22;50717;53.360;6.290;2023-02-23T04:01:26;7.20;99.90
64396;DHT22;50717;53.360;6.290;2023-02-23T04:04:11;8.20;99.90
64396;DHT22;50717;53.360;6.290;2023-02-23T04:06:58;8.00;99.90
64396;DHT22;50717;53.360;6.290;2023-02-23T04:09:43;7.10;99.90
64396;DHT22;50717;53.360;6.290;2023-02-23T04:18:23;7.20;99.90
64396;DHT22;50717;53.360;6.290;2023-02-23T04:20:50;7.30;99.90
64396;DHT22;50717;53.360;6.290;2023-02-23T04:23:16;8.10;99.90
64396;DHT22;50717;53.360;6.290;2023-02-23T04:25:42;8.10;99.90
64396;DHT22;50717;53.360;6.290;2023-02-23T04:28:08;8.20;99.90
64396;DHT22;50717;53.360;6.290;2023-02-23T04:30:34;7.30;99.90
64396;DHT22;50717;53.360;6.290;2023-02-23T04:32:59;7.30;99.90
64396;DHT22;50717;53.360;6.290;2023-02-23T04:35:26;8.10;99.90
64396;DHT22;50717;53.360;6.290;2023-02-23T04:37:53;7.60;99.90
64396;DHT22;50717;53.360;6.290;2023-02-23T04:40:19;8.00;99.90
64396;DHT22;50717;53.360;6.290;2023-02-23T04:42:44;7.80;99.90
64396;DHT22;50717;53.360;6.290;2023-02-23T04:45:10;7.50;99.90
64396;DHT22;50717;53.360;6.290;2023-02-23T04:47:36;7.40;99.90
64396;DHT22;50717;53.360;6.290;2023-02-23T04:52:29;7.90;99.90
64396;DHT22;50717;53.360;6.290;2023-02-23T04:54:56;7.40;99.90
64396;DHT22;50717;53.360;6.290;2023-02-23T04:57:21;8.20;99.90
64396;DHT22;50717;53.360;6.290;2023-02-23T04:59:47;7.30;99.90
64396;DHT22;50717;53.360;6.290;2023-02-23T05:02:13;6.80;99.90
64396;DHT22;50717;53.360;6.290;2023-02-23T05:04:38;8.00;99.90
64396;DHT22;50717;53.360;6.290;2023-02-23T05:07:04;7.60;99.90
64396;DHT22;50717;53.360;6.290;2023-02-23T05:09:30;7.10;99.90
64396;DHT22;50717;53.360;6.290;2023-02-23T05:11:57;7.20;99.90
64396;DHT22;50717;53.360;6.290;2023-02-23T05:14:23;7.30;99.90
64396;DHT22;50717;53.360;6.290;2023-02-23T05:16:49;7.20;99.90
64396;DHT22;50717;53.360;6.290;2023-02-23T05:19:14;7.90;99.90
64396;DHT22;50717;53.360;6.290;2023-02-23T05:21:40;7.90;99.90
64396;DHT22;50717;53.360;6.290;2023-02-23T05:24:07;7.80;99.90
64396;DHT22;50717;53.360;6.290;2023-02-23T05:26:32;7.70;99.90
64396;DHT22;50717;53.360;6.290;2023-02-23T05:28:58;7.00;99.90
64396;DHT22;50717;53.360;6.290;2023-02-23T05:31:24;7.30;99.90
64396;DHT22;50717;53.360;6.290;2023-02-23T05:33:51;7.60;99.90
64396;DHT22;50717;53.360;6.290;2023-02-23T05:36:18;7.70;99.90
64396;DHT22;50717;53.360;6.290;2023-02-23T05:38:45;7.00;99.90
64396;DHT22;50717;53.360;6.290;2023-02-23T05:41:19;7.50;99.90
64396;DHT22;50717;53.360;6.290;2023-02-23T05:43:46;7.00;99.90
64396;DHT22;50717;53.360;6.290;2023-02-23T05:46:15;7.20;99.90
64396;DHT22;50717;53.360;6.290;2023-02-23T05:48:41;7.20;99.90
64396;DHT22;50717;53.360;6.290;2023-02-23T05:51:09;6.90;99.90
64396;DHT22;50717;53.360;6.290;2023-02-23T05:53:36;8.00;99.90
64396;DHT22;50717;53.360;6.290;2023-02-23T05:56:03;7.70;99.90
64396;DHT22;50717;53.360;6.290;2023-02-23T05:58:29;7.10;99.90
64396;DHT22;50717;53.360;6.290;2023-02-23T06:00:55;7.10;99.90
64396;DHT22;50717;53.360;6.290;2023-02-23T06:03:20;6.90;99.90
64396;DHT22;50717;53.360;6.290;2023-02-23T06:05:50;7.20;99.90
64396;DHT22;50717;53.360;6.290;2023-02-23T06:08:16;7.70;99.90
64396;DHT22;50717;53.360;6.290;2023-02-23T06:10:42;7.40;99.90
64396;DHT22;50717;53.360;6.290;2023-02-23T06:13:09;7.10;99.90
64396;DHT22;50717;53.360;6.290;2023-02-23T06:15:35;7.60;99.90
64396;DHT22;50717;53.360;6.290;2023-02-23T06:18:02;7.00;99.90
64396;DHT22;50717;53.360;6.290;2023-02-23T06:20:27;7.10;99.90
64396;DHT22;50717;53.360;6.290;2023-02-23T06:22:53;7.40;99.90
64396;DHT22;50717;53.360;6.290;2023-02-23T06:25:19;7.60;99.90
64396;DHT22;50717;53.360;6.290;2023-02-23T06:27:44;7.60;99.90
64396;DHT22;50717;53.360;6.290;2023-02-23T06:30:11;7.50;99.90
64396;DHT22;50717;53.360;6.290;2023-02-23T06:32:37;7.70;99.90
64396;DHT22;50717;53.360;6.290;2023-02-23T06:35:07;7.30;99.90
64396;DHT22;50717;53.360;6.290;2023-02-23T06:37:33;7.60;99.90
64396;DHT22;50717;53.360;6.290;2023-02-23T06:39:59;6.90;99.90
64396;DHT22;50717;53.360;6.290;2023-02-23T06:42:25;7.60;99.90
64396;DHT22;50717;53.360;6.290;2023-02-23T06:44:51;7.50;99.90
64396;DHT22;50717;53.360;6.290;2023-02-23T06:47:17;7.10;99.90
64396;DHT22;50717;53.360;6.290;2023-02-23T06:49:42;6.80;99.90
64396;DHT22;50717;53.360;6.290;2023-02-23T06:52:09;7.90;99.90
64396;DHT22;50717;53.360;6.290;2023-02-23T06:54:35;6.90;99.90
64396;DHT22;50717;53.360;6.290;2023-02-23T06:57:02;7.00;99.90
64396;DHT22;50717;53.360;6.290;2023-02-23T06:59:28;7.60;99.90
64396;DHT22;50717;53.360;6.290;2023-02-23T07:01:55;7.30;99.90
64396;DHT22;50717;53.360;6.290;2023-02-23T07:04:21;7.10;99.90
64396;DHT22;50717;53.360;6.290;2023-02-23T07:06:47;6.80;99.90
64396;DHT22;50717;53.360;6.290;2023-02-23T07:09:13;7.70;99.90
64396;DHT22;50717;53.360;6.290;2023-02-23T07:11:40;7.30;99.90
64396;DHT22;50717;53.360;6.290;2023-02-23T07:14:11;6.90;99.90
64396;DHT22;50717;53.360;6.290;2023-02-23T07:16:37;7.70;99.90
64396;DHT22;50717;53.360;6.290;2023-02-23T07:19:05;7.40;99.90
64396;DHT22;50717;53.360;6.290;2023-02-23T07:21:32;7.30;99.90
64396;DHT22;50717;53.360;6.290;2023-02-23T07:23:59;7.70;99.90
64396;DHT22;50717;53.360;6.290;2023-02-23T07:26:25;6.90;99.90
64396;DHT22;50717;53.360;6.290;2023-02-23T07:28:51;7.80;99.90
64396;DHT22;50717;53.360;6.290;2023-02-23T07:31:16;7.00;99.90
64396;DHT22;50717;53.360;6.290;2023-02-23T07:33:42;7.30;99.90
64396;DHT22;50717;53.360;6.290;2023-02-23T07:36:08;7.30;99.90
64396;DHT22;50717;53.360;6.290;2023-02-23T07:38:34;7.00;99.90
64396;DHT22;50717;53.360;6.290;2023-02-23T07:41:01;7.40;99.90
64396;DHT22;50717;53.360;6.290;2023-02-23T07:43:27;7.30;99.90
64396;DHT22;50717;53.360;6.290;2023-02-23T07:45:52;7.70;99.90
64396;DHT22;50717;53.360;6.290;2023-02-23T07:48:19;7.00;99.90
64396;DHT22;50717;53.360;6.290;2023-02-23T07:50:46;7.70;99.90
64396;DHT22;50717;53.360;6.290;2023-02-23T07:53:12;7.50;99.90
64396;DHT22;50717;53.360;6.290;2023-02-23T07:55:38;7.80;99.90
64396;DHT22;50717;53.360;6.290;2023-02-23T07:58:05;7.40;99.90
64396;DHT22;50717;53.360;6.290;2023-02-23T08:00:32;7.20;99.90
64396;DHT22;50717;53.360;6.290;2023-02-23T08:02:58;8.00;99.90
64396;DHT22;50717;53.360;6.290;2023-02-23T08:05:26;7.70;99.90
64396;DHT22;50717;53.360;6.290;2023-02-23T08:07:53;7.40;99.90
64396;DHT22;50717;53.360;6.290;2023-02-23T08:10:20;7.80;99.90
64396;DHT22;50717;53.360;6.290;2023-02-23T08:12:46;7.40;99.90
64396;DHT22;50717;53.360;6.290;2023-02-23T08:15:11;7.90;99.90
64396;DHT22;50717;53.360;6.290;2023-02-23T08:17:38;8.00;99.90
64396;DHT22;50717;53.360;6.290;2023-02-23T08:20:05;7.40;99.90
64396;DHT22;50717;53.360;6.290;2023-02-23T08:22:31;7.60;99.90
64396;DHT22;50717;53.360;6.290;2023-02-23T08:24:57;7.60;99.90
64396;DHT22;50717;53.360;6.290;2023-02-23T08:27:23;7.50;99.90
64396;DHT22;50717;53.360;6.290;2023-02-23T08:29:49;8.20;99.90
64396;DHT22;50717;53.360;6.290;2023-02-23T08:32:18;7.40;99.90
64396;DHT22;50717;53.360;6.290;2023-02-23T08:34:44;7.40;99.90
64396;DHT22;50717;53.360;6.290;2023-02-23T08:37:10;7.30;99.90
64396;DHT22;50717;53.360;6.290;2023-02-23T08:39:36;7.50;99.90
64396;DHT22;50717;53.360;6.290;2023-02-23T08:42:03;7.40;99.90
64396;DHT22;50717;53.360;6.290;2023-02-23T08:44:29;7.30;99.90
64396;DHT22;50717;53.360;6.290;2023-02-23T08:46:55;8.40;99.90
64396;DHT22;50717;53.360;6.290;2023-02-23T08:49:23;7.80;99.90
64396;DHT22;50717;53.360;6.290;2023-02-23T08:51:50;8.10;99.90
64396;DHT22;50717;53.360;6.290;2023-02-23T08:54:16;8.10;99.90
64396;DHT22;50717;53.360;6.290;2023-02-23T08:56:42;8.00;99.90
64396;DHT22;50717;53.360;6.290;2023-02-23T08:59:09;7.90;99.90
64396;DHT22;50717;53.360;6.290;2023-02-23T09:01:35;8.40;99.90
64396;DHT22;50717;53.360;6.290;2023-02-23T09:04:02;7.70;99.90
64396;DHT22;50717;53.360;6.290;2023-02-23T09:06:28;8.20;99.90
64396;DHT22;50717;53.360;6.290;2023-02-23T09:08:54;7.90;99.90
64396;DHT22;50717;53.360;6.290;2023-02-23T09:11:22;8.20;99.90
64396;DHT22;50717;53.360;6.290;2023-02-23T09:13:48;8.90;99.90
64396;DHT22;50717;53.360;6.290;2023-02-23T09:16:14;8.40;99.90
64396;DHT22;50717;53.360;6.290;2023-02-23T09:18:40;8.80;99.90
64396;DHT22;50717;53.360;6.290;2023-02-23T09:21:07;8.70;99.90
64396;DHT22;50717;53.360;6.290;2023-02-23T09:23:35;8.70;99.90
64396;DHT22;50717;53.360;6.290;2023-02-23T09:26:05;8.00;99.90
64396;DHT22;50717;53.360;6.290;2023-02-23T09:28:33;8.30;99.90
64396;DHT22;50717;53.360;6.290;2023-02-23T09:31:07;8.30;99.90
64396;DHT22;50717;53.360;6.290;2023-02-23T09:33:34;8.00;99.90
64396;DHT22;50717;53.360;6.290;2023-02-23T09:36:03;8.70;99.90
64396;DHT22;50717;53.360;6.290;2023-02-23T09:38:29;8.60;99.90
64396;DHT22;50717;53.360;6.290;2023-02-23T09:40:55;8.20;99.90
64396;DHT22;50717;53.360;6.290;2023-02-23T09:49:15;8.30;99.90
64396;DHT22;50717;53.360;6.290;2023-02-23T09:51:46;8.20;99.90
64396;DHT22;50717;53.360;6.290;2023-02-23T09:54:15;8.20;99.90
64396;DHT22;50717;53.360;6.290;2023-02-23T09:56:46;8.50;99.90
64396;DHT22;50717;53.360;6.290;2023-02-23T09:59:16;8.60;99.90
64396;DHT22;50717;53.360;6.290;2023-02-23T10:04:46;8.60;99.90
64396;DHT22;50717;53.360;6.290;2023-02-23T10:07:25;8.40;99.90
64396;DHT22;50717;53.360;6.290;2023-02-23T10:17:54;8.50;99.90
64396;DHT22;50717;53.360;6.290;2023-02-23T10:23:22;8.80;99.90
64396;DHT22;50717;53.360;6.290;2023-02-23T10:25:53;8.60;99.90
64396;DHT22;50717;53.360;6.290;2023-02-23T10:28:21;8.80;99.90
64396;DHT22;50717;53.360;6.290;2023-02-23T10:30:48;8.80;99.90
64396;DHT22;50717;53.360;6.290;2023-02-23T10:33:25;8.40;99.90
64396;DHT22;50717;53.360;6.290;2023-02-23T10:35:59;8.60;99.90
64396;DHT22;50717;53.360;6.290;2023-02-23T10:38:26;8.30;99.90
64396;DHT22;50717;53.360;6.290;2023-02-23T10:40:55;9.10;99.90
64396;DHT22;50717;53.360;6.290;2023-02-23T10:43:21;8.40;99.90
64396;DHT22;50717;53.360;6.290;2023-02-23T10:45:50;8.50;99.90
64396;DHT22;50717;53.360;6.290;2023-02-23T10:48:26;8.20;99.90
64396;DHT22;50717;53.360;6.290;2023-02-23T10:50:55;8.50;99.90
64396;DHT22;50717;53.360;6.290;2023-02-23T10:53:31;8.20;99.90
64396;DHT22;50717;53.360;6.290;2023-02-23T10:56:11;8.30;99.90
64396;DHT22;50717;53.360;6.290;2023-02-23T11:01:12;8.50;99.90
64396;DHT22;50717;53.360;6.290;2023-02-23T11:06:34;8.70;99.90
64396;DHT22;50717;53.360;6.290;2023-02-23T11:09:28;8.70;99.90
64396;DHT22;50717;53.360;6.290;2023-02-23T11:12:21;8.60;99.90
64396;DHT22;50717;53.360;6.290;2023-02-23T11:14:55;8.70;99.90
64396;DHT22;50717;53.360;6.290;2023-02-23T11:19:49;8.20;99.90
64396;DHT22;50717;53.360;6.290;2023-02-23T11:22:19;8.40;99.90
64396;DHT22;50717;53.360;6.290;2023-02-23T11:24:48;8.30;99.90
64396;DHT22;50717;53.360;6.290;2023-02-23T11:27:25;8.50;99.90
64396;DHT22;50717;53.360;6.290;2023-02-23T11:29:54;8.10;99.90
64396;DHT22;50717;53.360;6.290;2023-02-23T11:32:32;7.80;99.90
64396;DHT22;50717;53.360;6.290;2023-02-23T11:37:49;8.50;99.90
64396;DHT22;50717;53.360;6.290;2023-02-23T11:40:27;8.30;99.90
64396;DHT22;50717;53.360;6.290;2023-02-23T11:45:31;8.10;99.90
64396;DHT22;50717;53.360;6.290;2023-02-23T11:48:00;8.30;99.90
64396;DHT22;50717;53.360;6.290;2023-02-23T11:50:32;8.20;99.90
64396;DHT22;50717;53.360;6.290;2023-02-23T11:53:14;8.00;99.90
64396;DHT22;50717;53.360;6.290;2023-02-23T11:55:50;8.80;99.90
64396;DHT22;50717;53.360;6.290;2023-02-23T11:58:24;8.00;99.90
64396;DHT22;50717;53.360;6.290;2023-02-23T12:00:56;7.40;99.90
64396;DHT22;50717;53.360;6.290;2023-02-23T12:03:22;7.50;99.90
64396;DHT22;50717;53.360;6.290;2023-02-23T12:05:52;7.40;99.90
64396;DHT22;50717;53.360;6.290;2023-02-23T12:08:36;8.30;99.90
64396;DHT22;50717;53.360;6.290;2023-02-23T12:11:07;7.60;99.90
64396;DHT22;50717;53.360;6.290;2023-02-23T12:13:44;8.40;99.90
64396;DHT22;50717;53.360;6.290;2023-02-23T12:16:25;7.30;99.90
64396;DHT22;50717;53.360;6.290;2023-02-23T12:21:42;8.20;99.90
64396;DHT22;50717;53.360;6.290;2023-02-23T12:24:19;7.10;99.90
64396;DHT22;50717;53.360;6.290;2023-02-23T12:26:55;8.20;99.90
64396;DHT22;50717;53.360;6.290;2023-02-23T12:32:21;7.40;99.90
64396;DHT22;50717;53.360;6.290;2023-02-23T12:34:57;7.80;99.90
64396;DHT22;50717;53.360;6.290;2023-02-23T12:37:37;6.90;99.90
64396;DHT22;50717;53.360;6.290;2023-02-23T12:40:20;8.10;99.90
64396;DHT22;50717;53.360;6.290;2023-02-23T12:45:44;7.80;99.90
64396;DHT22;50717;53.360;6.290;2023-02-23T12:48:37;7.20;99.90
64396;DHT22;50717;53.360;6.290;2023-02-23T12:51:16;7.50;99.90
64396;DHT22;50717;53.360;6.290;2023-02-23T12:53:43;7.60;99.90
64396;DHT22;50717;53.360;6.290;2023-02-23T13:01:59;6.50;99.90
64396;DHT22;50717;53.360;6.290;2023-02-23T13:04:56;7.60;99.90
64396;DHT22;50717;53.360;6.290;2023-02-23T13:07:34;6.70;99.90
64396;DHT22;50717;53.360;6.290;2023-02-23T13:31:35;7.30;99.90
64396;DHT22;50717;53.360;6.290;2023-02-23T13:34:03;7.60;99.90
64396;DHT22;50717;53.360;6.290;2023-02-23T13:36:32;7.60;99.90
64396;DHT22;50717;53.360;6.290;2023-02-23T13:42:43;7.50;99.90
64396;DHT22;50717;53.360;6.290;2023-02-23T13:45:20;7.30;99.90
64396;DHT22;50717;53.360;6.290;2023-02-23T13:50:18;7.40;99.90
64396;DHT22;50717;53.360;6.290;2023-02-23T13:52:47;7.20;99.90
64396;DHT22;50717;53.360;6.290;2023-02-23T13:58:05;7.00;99.90
64396;DHT22;50717;53.360;6.290;2023-02-23T14:00:35;7.20;99.90
64396;DHT22;50717;53.360;6.290;2023-02-23T14:03:02;7.30;99.90
64396;DHT22;50717;53.360;6.290;2023-02-23T14:05:29;7.20;99.90
64396;DHT22;50717;53.360;6.290;2023-02-23T14:08:03;7.40;99.90
64396;DHT22;50717;53.360;6.290;2023-02-23T14:18:27;7.00;99.90
64396;DHT22;50717;53.360;6.290;2023-02-23T14:34:57;6.80;99.90
64396;DHT22;50717;53.360;6.290;2023-02-23T14:37:41;7.00;99.90
64396;DHT22;50717;53.360;6.290;2023-02-23T14:42:49;7.00;99.90
64396;DHT22;50717;53.360;6.290;2023-02-23T14:45:18;7.00;99.90
64396;DHT22;50717;53.360;6.290;2023-02-23T14:47:50;7.20;99.90
64396;DHT22;50717;53.360;6.290;2023-02-23T14:50:30;7.00;99.90
64396;DHT22;50717;53.360;6.290;2023-02-23T14:52:57;7.10;99.90
64396;DHT22;50717;53.360;6.290;2023-02-23T14:55:30;7.00;99.90
64396;DHT22;50717;53.360;6.290;2023-02-23T14:57:57;6.80;99.90
64396;DHT22;50717;53.360;6.290;2023-02-23T15:00:26;7.20;99.90
64396;DHT22;50717;53.360;6.290;2023-02-23T15:03:02;7.10;99.90
64396;DHT22;50717;53.360;6.290;2023-02-23T15:05:31;7.00;99.90
64396;DHT22;50717;53.360;6.290;2023-02-23T15:08:04;7.10;99.90
64396;DHT22;50717;53.360;6.290;2023-02-23T15:10:42;7.20;99.90
64396;DHT22;50717;53.360;6.290;2023-02-23T15:13:11;7.10;99.90
64396;DHT22;50717;53.360;6.290;2023-02-23T15:15:43;6.70;99.90
64396;DHT22;50717;53.360;6.290;2023-02-23T15:18:16;7.20;99.90
64396;DHT22;50717;53.360;6.290;2023-02-23T15:20:47;7.00;99.90
64396;DHT22;50717;53.360;6.290;2023-02-23T15:23:17;7.20;99.90
64396;DHT22;50717;53.360;6.290;2023-02-23T15:25:43;7.00;99.90
64396;DHT22;50717;53.360;6.290;2023-02-23T15:28:25;7.10;99.90
64396;DHT22;50717;53.360;6.290;2023-02-23T15:30:54;6.80;99.90
64396;DHT22;50717;53.360;6.290;2023-02-23T15:33:23;7.10;99.90
64396;DHT22;50717;53.360;6.290;2023-02-23T15:38:27;6.60;99.90
64396;DHT22;50717;53.360;6.290;2023-02-23T15:41:03;6.50;99.90
64396;DHT22;50717;53.360;6.290;2023-02-23T15:43:31;7.00;99.90
64396;DHT22;50717;53.360;6.290;2023-02-23T15:48:41;6.60;99.90
64396;DHT22;50717;53.360;6.290;2023-02-23T15:53:56;7.20;99.90
64396;DHT22;50717;53.360;6.290;2023-02-23T15:56:28;6.90;99.90
64396;DHT22;50717;53.360;6.290;2023-02-23T15:59:04;6.60;99.90
64396;DHT22;50717;53.360;6.290;2023-02-23T16:01:30;6.90;99.90
64396;DHT22;50717;53.360;6.290;2023-02-23T16:06:31;6.90;99.90
64396;DHT22;50717;53.360;6.290;2023-02-23T16:11:34;6.80;99.90
64396;DHT22;50717;53.360;6.290;2023-02-23T16:14:02;6.60;99.90
64396;DHT22;50717;53.360;6.290;2023-02-23T16:16:30;6.50;99.90
64396;DHT22;50717;53.360;6.290;2023-02-23T16:18:59;6.80;99.90
64396;DHT22;50717;53.360;6.290;2023-02-23T16:21:28;6.50;99.90
64396;DHT22;50717;53.360;6.290;2023-02-23T16:29:38;6.60;99.90
64396;DHT22;50717;53.360;6.290;2023-02-23T16:32:17;6.30;99.90
64396;DHT22;50717;53.360;6.290;2023-02-23T16:34:54;6.60;99.90
64396;DHT22;50717;53.360;6.290;2023-02-23T16:37:23;6.60;99.90
64396;DHT22;50717;53.360;6.290;2023-02-23T16:39:50;6.50;99.90
64396;DHT22;50717;53.360;6.290;2023-02-23T16:42:40;6.30;99.90
64396;DHT22;50717;53.360;6.290;2023-02-23T16:45:05;6.60;99.90
64396;DHT22;50717;53.360;6.290;2023-02-23T16:47:35;6.40;99.90
64396;DHT22;50717;53.360;6.290;2023-02-23T16:50:15;6.20;99.90
64396;DHT22;50717;53.360;6.290;2023-02-23T16:52:44;6.10;99.90
64396;DHT22;50717;53.360;6.290;2023-02-23T16:57:44;6.40;99.90
64396;DHT22;50717;53.360;6.290;2023-02-23T17:00:22;6.10;99.90
64396;DHT22;50717;53.360;6.290;2023-02-23T17:02:49;6.00;99.90
64396;DHT22;50717;53.360;6.290;2023-02-23T17:05:18;5.90;99.90
64396;DHT22;50717;53.360;6.290;2023-02-23T17:07:46;5.80;99.90
64396;DHT22;50717;53.360;6.290;2023-02-23T17:10:33;5.70;99.90
64396;DHT22;50717;53.360;6.290;2023-02-23T17:13:06;5.70;99.90
64396;DHT22;50717;53.360;6.290;2023-02-23T17:15:35;5.80;99.90
64396;DHT22;50717;53.360;6.290;2023-02-23T17:20:28;5.70;99.90
64396;DHT22;50717;53.360;6.290;2023-02-23T17:22:58;5.60;99.90
64396;DHT22;50717;53.360;6.290;2023-02-23T17:25:24;5.50;99.90
64396;DHT22;50717;53.360;6.290;2023-02-23T17:27:54;5.80;99.90
64396;DHT22;50717;53.360;6.290;2023-02-23T17:30:20;5.70;99.90
64396;DHT22;50717;53.360;6.290;2023-02-23T17:32:46;5.50;99.90
64396;DHT22;50717;53.360;6.290;2023-02-23T17:35:12;5.60;99.90
64396;DHT22;50717;53.360;6.290;2023-02-23T17:37:37;5.50;99.90
64396;DHT22;50717;53.360;6.290;2023-02-23T17:40:06;5.60;99.90
64396;DHT22;50717;53.360;6.290;2023-02-23T17:45:01;5.30;99.90
64396;DHT22;50717;53.360;6.290;2023-02-23T17:47:29;4.90;99.90
64396;DHT22;50717;53.360;6.290;2023-02-23T17:49:55;5.10;99.90
64396;DHT22;50717;53.360;6.290;2023-02-23T17:52:21;4.90;99.90
64396;DHT22;50717;53.360;6.290;2023-02-23T17:54:47;4.80;99.90
64396;DHT22;50717;53.360;6.290;2023-02-23T17:57:13;4.80;99.90
64396;DHT22;50717;53.360;6.290;2023-02-23T17:59:39;4.60;99.90
64396;DHT22;50717;53.360;6.290;2023-02-23T18:06:58;4.50;99.90
64396;DHT22;50717;53.360;6.290;2023-02-23T18:14:20;4.60;99.90
64396;DHT22;50717;53.360;6.290;2023-02-23T18:16:46;4.70;99.90
64396;DHT22;50717;53.360;6.290;2023-02-23T18:28:58;4.40;99.90
64396;DHT22;50717;53.360;6.290;2023-02-23T18:31:26;4.20;99.90
64396;DHT22;50717;53.360;6.290;2023-02-23T18:38:47;4.60;99.90
64396;DHT22;50717;53.360;6.290;2023-02-23T18:41:13;4.10;99.90
64396;DHT22;50717;53.360;6.290;2023-02-23T18:43:39;4.00;99.90
64396;DHT22;50717;53.360;6.290;2023-02-23T18:53:24;4.00;99.90
64396;DHT22;50717;53.360;6.290;2023-02-23T18:55:50;4.20;99.90
64396;DHT22;50717;53.360;6.290;2023-02-23T19:00:41;4.10;99.90
64396;DHT22;50717;53.360;6.290;2023-02-23T19:03:09;4.00;99.90
64396;DHT22;50717;53.360;6.290;2023-02-23T19:15:36;4.30;99.90
64396;DHT22;50717;53.360;6.290;2023-02-23T19:23:04;4.60;99.90
64396;DHT22;50717;53.360;6.290;2023-02-23T19:25:30;4.80;99.90
64396;DHT22;50717;53.360;6.290;2023-02-23T19:27:57;4.60;99.90
64396;DHT22;50717;53.360;6.290;2023-02-23T19:30:23;4.50;99.90
64396;DHT22;50717;53.360;6.290;2023-02-23T19:35:16;5.00;99.90
64396;DHT22;50717;53.360;6.290;2023-02-23T19:37:49;4.90;99.90
64396;DHT22;50717;53.360;6.290;2023-02-23T19:45:14;5.20;99.90
64396;DHT22;50717;53.360;6.290;2023-02-23T19:47:41;5.10;99.90
64396;DHT22;50717;53.360;6.290;2023-02-23T19:50:16;5.10;99.90
64396;DHT22;50717;53.360;6.290;2023-02-23T19:52:44;5.20;99.90
64396;DHT22;50717;53.360;6.290;2023-02-23T19:55:11;5.60;99.90